Time,TemperatureF,DewpointF,PressureIn,WindDirection,WindDirectionDegrees,WindSpeedMPH,WindSpeedGustMPH,Humidity,HourlyPrecipIn,Conditions,Clouds,dailyrainin,SoftwareType,DateUTC
2013-05-22 00:01:00,65.1,58.0,29.67,West,281,0.0,2.0,77,0.00,,,0.00,weatherlink.com 1.10,2013-05-22 05:01:00,
2013-05-22 00:16:00,64.9,58.0,29.66,West,281,0.0,1.0,77,0.00,,,0.00,weatherlink.com 1.10,2013-05-22 05:16:00,
2013-05-22 00:31:00,65.3,58.0,29.66,West,270,2.0,5.0,76,0.00,,,0.00,weatherlink.com 1.10,2013-05-22 05:31:00,
2013-05-22 00:46:00,66.0,58.0,29.66,WSW,247,0.0,3.0,75,0.00,,,0.00,weatherlink.com 1.10,2013-05-22 05:46:00,
2013-05-22 01:01:00,65.9,58.0,29.66,West,263,0.0,4.0,76,0.00,,,0.00,weatherlink.com 1.10,2013-05-22 06:01:00,
2013-05-22 01:16:00,65.9,59.0,29.66,WSW,251,0.0,3.0,77,0.00,,,0.00,weatherlink.com 1.10,2013-05-22 06:16:00,
2013-05-22 01:31:00,65.8,58.0,29.66,West,261,2.0,3.0,77,0.00,,,0.00,weatherlink.com 1.10,2013-05-22 06:31:00,
2013-05-22 01:46:00,65.5,58.0,29.66,WSW,252,1.0,4.0,78,0.00,,,0.00,weatherlink.com 1.10,2013-05-22 06:46:00,
2013-05-22 02:01:00,65.3,59.0,29.66,West,270,1.0,5.0,79,0.00,,,0.00,weatherlink.com 1.10,2013-05-22 07:01:00,
2013-05-22 02:16:00,65.1,58.0,29.65,WSW,254,4.0,7.0,79,0.00,,,0.00,weatherlink.com 1.10,2013-05-22 07:16:00,
2013-05-22 02:31:00,65.1,58.0,29.65,West,277,3.0,7.0,79,0.00,,,0.00,weatherlink.com 1.10,2013-05-22 07:31:00,
2013-05-22 02:46:00,64.7,58.0,29.65,West,279,4.0,5.0,80,0.00,,,0.00,weatherlink.com 1.10,2013-05-22 07:46:00,
2013-05-22 03:02:00,64.4,58.0,29.63,SSW,211,2.0,3.0,80,0.00,,,0.00,weatherlink.com 1.10,2013-05-22 08:02:00,
2013-05-22 03:17:00,64.1,58.0,29.63,SW,229,0.0,2.0,81,0.00,,,0.00,weatherlink.com 1.10,2013-05-22 08:17:00,
2013-05-22 03:32:00,64.2,58.0,29.62,SW,234,0.0,3.0,81,0.00,,,0.00,weatherlink.com 1.10,2013-05-22 08:32:00,
2013-05-22 04:02:00,64.5,59.0,29.62,SSW,213,0.0,3.0,81,0.00,,,0.00,weatherlink.com 1.10,2013-05-22 09:02:00,
2013-05-22 04:17:00,64.4,58.0,29.62,SW,229,1.0,5.0,81,0.00,,,0.00,weatherlink.com 1.10,2013-05-22 09:17:00,
2013-05-22 04:32:00,64.1,59.0,29.64,SW,227,2.0,5.0,83,0.00,,,0.00,weatherlink.com 1.10,2013-05-22 09:32:00,
2013-05-22 04:47:00,64.0,59.0,29.64,SW,227,3.0,5.0,83,0.00,,,0.00,weatherlink.com 1.10,2013-05-22 09:47:00,
2013-05-22 05:02:00,63.8,59.0,29.63,West,263,1.0,5.0,83,0.00,,,0.00,weatherlink.com 1.10,2013-05-22 10:02:00,
2013-05-22 05:17:00,63.6,59.0,29.62,SW,230,2.0,4.0,84,0.00,,,0.00,weatherlink.com 1.10,2013-05-22 10:17:00,
2013-05-22 05:32:00,63.3,59.0,29.63,West,259,3.0,5.0,85,0.00,,,0.00,weatherlink.com 1.10,2013-05-22 10:32:00,
2013-05-22 05:47:00,62.9,59.0,29.63,West,266,3.0,6.0,87,0.00,,,0.00,weatherlink.com 1.10,2013-05-22 10:47:00,
2013-05-22 06:02:00,62.6,59.0,29.64,SW,219,1.0,3.0,88,0.00,,,0.00,weatherlink.com 1.10,2013-05-22 11:02:00,
2013-05-22 06:18:00,62.3,59.0,29.64,WSW,254,3.0,7.0,88,0.00,,,0.00,weatherlink.com 1.10,2013-05-22 11:18:00,
2013-05-22 06:33:00,62.0,59.0,29.64,WSW,250,2.0,6.0,89,0.00,,,0.00,weatherlink.com 1.10,2013-05-22 11:33:00,
2013-05-22 06:48:00,61.7,59.0,29.63,WNW,284,2.0,7.0,89,0.00,,,0.00,weatherlink.com 1.10,2013-05-22 11:48:00,
2013-05-22 07:03:00,61.4,58.0,29.61,WNW,297,0.0,3.0,87,0.00,,,0.00,weatherlink.com 1.10,2013-05-22 12:03:00,
2013-05-22 07:18:00,61.3,57.0,29.63,West,269,1.0,5.0,87,0.01,,,0.01,weatherlink.com 1.10,2013-05-22 12:18:00,
2013-05-22 07:33:00,61.1,57.0,29.63,WNW,294,4.0,5.0,87,0.01,,,0.01,weatherlink.com 1.10,2013-05-22 12:33:00,
2013-05-22 07:48:00,61.3,57.0,29.64,West,268,4.0,7.0,85,0.01,,,0.01,weatherlink.com 1.10,2013-05-22 12:48:00,
2013-05-22 08:03:00,61.9,57.0,29.64,SW,236,1.0,7.0,83,0.01,,,0.01,weatherlink.com 1.10,2013-05-22 13:03:00,
2013-05-22 08:18:00,62.2,56.0,29.65,WNW,292,3.0,6.0,81,0.00,,,0.01,weatherlink.com 1.10,2013-05-22 13:18:00,
2013-05-22 08:34:00,62.0,55.0,29.65,NW,323,2.0,6.0,79,0.00,,,0.01,weatherlink.com 1.10,2013-05-22 13:34:00,
2013-05-22 08:48:00,62.2,56.0,29.65,WNW,300,2.0,4.0,79,0.00,,,0.01,weatherlink.com 1.10,2013-05-22 13:48:00,
2013-05-22 09:03:00,62.8,55.0,29.65,NW,306,3.0,4.0,76,0.00,,,0.01,weatherlink.com 1.10,2013-05-22 14:03:00,
2013-05-22 09:18:00,63.2,55.0,29.66,WNW,294,0.0,6.0,75,0.00,,,0.01,weatherlink.com 1.10,2013-05-22 14:18:00,
2013-05-22 09:34:00,63.6,55.0,29.66,West,261,1.0,6.0,74,0.00,,,0.01,weatherlink.com 1.10,2013-05-22 14:34:00,
2013-05-22 09:49:00,63.9,56.0,29.67,WNW,290,3.0,7.0,76,0.00,,,0.01,weatherlink.com 1.10,2013-05-22 14:49:00,
2013-05-22 10:04:00,64.8,56.0,29.67,West,275,3.0,7.0,73,0.00,,,0.01,weatherlink.com 1.10,2013-05-22 15:04:00,
2013-05-22 10:34:00,66.1,56.0,29.67,SW,230,3.0,6.0,70,0.00,,,0.01,weatherlink.com 1.10,2013-05-22 15:34:00,
2013-05-22 10:49:00,67.0,54.0,29.67,West,259,6.0,8.0,64,0.00,,,0.01,weatherlink.com 1.10,2013-05-22 15:49:00,
2013-05-22 11:04:00,68.8,56.0,29.67,NW,309,7.0,8.0,63,0.00,,,0.01,weatherlink.com 1.10,2013-05-22 16:04:00,
2013-05-22 11:19:00,69.1,54.0,29.67,NNW,340,7.0,10.0,60,0.00,,,0.01,weatherlink.com 1.10,2013-05-22 16:19:00,
2013-05-22 11:34:00,69.6,54.0,29.67,WNW,293,5.0,11.0,57,0.00,,,0.01,weatherlink.com 1.10,2013-05-22 16:34:00,
2013-05-22 11:49:00,70.6,53.0,29.68,West,278,6.0,11.0,54,0.00,,,0.01,weatherlink.com 1.10,2013-05-22 16:49:00,
2013-05-22 12:04:00,70.4,55.0,29.68,WSW,258,6.0,14.0,58,0.00,,,0.01,weatherlink.com 1.10,2013-05-22 17:04:00,
2013-05-22 12:19:00,70.1,54.0,29.68,WSW,254,3.0,13.0,58,0.00,,,0.01,weatherlink.com 1.10,2013-05-22 17:19:00,
2013-05-22 12:34:00,70.2,54.0,29.67,West,270,7.0,16.0,57,0.00,,,0.01,weatherlink.com 1.10,2013-05-22 17:34:00,
2013-05-22 12:49:00,69.5,53.0,29.68,SSW,213,5.0,13.0,57,0.00,,,0.01,weatherlink.com 1.10,2013-05-22 17:49:00,
2013-05-22 13:05:00,68.5,54.0,29.68,SW,225,7.0,12.0,61,0.00,,,0.01,weatherlink.com 1.10,2013-05-22 18:05:00,
2013-05-22 13:20:00,68.1,55.0,29.68,West,275,6.0,12.0,63,0.00,,,0.01,weatherlink.com 1.10,2013-05-22 18:20:00,
2013-05-22 13:35:00,69.4,55.0,29.68,WNW,284,7.0,13.0,60,0.00,,,0.01,weatherlink.com 1.10,2013-05-22 18:35:00,
2013-05-22 13:50:00,69.4,55.0,29.68,West,265,7.0,13.0,61,0.00,,,0.01,weatherlink.com 1.10,2013-05-22 18:50:00,
2013-05-22 14:05:00,68.8,55.0,29.68,NW,304,4.0,13.0,61,0.00,,,0.01,weatherlink.com 1.10,2013-05-22 19:05:00,
2013-05-22 14:20:00,68.3,55.0,29.68,WNW,295,5.0,14.0,63,0.00,,,0.01,weatherlink.com 1.10,2013-05-22 19:20:00,
2013-05-22 14:35:00,69.0,56.0,29.69,West,273,7.0,12.0,64,0.00,,,0.01,weatherlink.com 1.10,2013-05-22 19:35:00,
2013-05-22 14:50:00,68.8,56.0,29.69,SW,228,11.0,17.0,63,0.00,,,0.01,weatherlink.com 1.10,2013-05-22 19:50:00,
2013-05-22 15:05:00,68.8,56.0,29.69,NNW,327,14.0,15.0,64,0.00,,,0.01,weatherlink.com 1.10,2013-05-22 20:05:00,
2013-05-22 15:20:00,68.6,56.0,29.69,West,274,10.0,15.0,64,0.00,,,0.01,weatherlink.com 1.10,2013-05-22 20:20:00,
2013-05-22 15:35:00,67.7,55.0,29.69,West,271,9.0,14.0,63,0.00,,,0.01,weatherlink.com 1.10,2013-05-22 20:35:00,
2013-05-22 15:50:00,67.4,54.0,29.69,West,279,8.0,17.0,63,0.00,,,0.01,weatherlink.com 1.10,2013-05-22 20:50:00,
2013-05-22 16:05:00,66.8,54.0,29.70,WSW,257,9.0,17.0,64,0.00,,,0.01,weatherlink.com 1.10,2013-05-22 21:05:00,
2013-05-22 16:21:00,66.4,55.0,29.70,West,271,6.0,14.0,67,0.00,,,0.01,weatherlink.com 1.10,2013-05-22 21:21:00,
2013-05-22 16:36:00,66.4,55.0,29.70,WNW,294,7.0,14.0,66,0.00,,,0.01,weatherlink.com 1.10,2013-05-22 21:36:00,
2013-05-22 16:51:00,66.2,55.0,29.70,NW,305,4.0,12.0,67,0.00,,,0.01,weatherlink.com 1.10,2013-05-22 21:51:00,
2013-05-22 17:06:00,65.8,54.0,29.71,WNW,296,7.0,14.0,67,0.00,,,0.01,weatherlink.com 1.10,2013-05-22 22:06:00,
2013-05-22 17:21:00,65.4,55.0,29.71,NW,311,4.0,12.0,68,0.00,,,0.01,weatherlink.com 1.10,2013-05-22 22:21:00,
2013-05-22 17:36:00,64.8,54.0,29.71,West,277,8.0,15.0,68,0.00,,,0.01,weatherlink.com 1.10,2013-05-22 22:36:00,
2013-05-22 17:51:00,64.8,55.0,29.72,West,275,5.0,15.0,70,0.00,,,0.01,weatherlink.com 1.10,2013-05-22 22:51:00,
2013-05-22 18:06:00,64.2,55.0,29.72,SW,225,5.0,14.0,73,0.00,,,0.01,weatherlink.com 1.10,2013-05-22 23:06:00,
2013-05-22 18:21:00,63.7,56.0,29.72,West,273,1.0,13.0,75,0.00,,,0.01,weatherlink.com 1.10,2013-05-22 23:21:00,
2013-05-22 18:36:00,63.3,55.0,29.72,WSW,257,10.0,13.0,74,0.00,,,0.01,weatherlink.com 1.10,2013-05-22 23:36:00,
2013-05-22 18:51:00,63.1,55.0,29.72,West,273,8.0,11.0,75,0.00,,,0.01,weatherlink.com 1.10,2013-05-22 23:51:00,
2013-05-22 19:06:00,62.8,55.0,29.72,WNW,292,4.0,10.0,76,0.00,,,0.01,weatherlink.com 1.10,2013-05-23 00:06:00,
2013-05-22 19:21:00,62.6,55.0,29.73,WNW,286,6.0,11.0,77,0.00,,,0.01,weatherlink.com 1.10,2013-05-23 00:21:00,
2013-05-22 19:36:00,62.5,56.0,29.73,West,271,5.0,10.0,78,0.00,,,0.01,weatherlink.com 1.10,2013-05-23 00:36:00,
2013-05-22 19:52:00,62.3,55.0,29.73,WNW,291,5.0,10.0,78,0.00,,,0.01,weatherlink.com 1.10,2013-05-23 00:52:00,
2013-05-22 20:07:00,62.1,56.0,29.73,WSW,258,4.0,11.0,79,0.00,,,0.01,weatherlink.com 1.10,2013-05-23 01:07:00,
2013-05-22 20:22:00,62.0,55.0,29.74,WNW,286,4.0,8.0,78,0.00,,,0.01,weatherlink.com 1.10,2013-05-23 01:22:00,
2013-05-22 20:37:00,62.0,55.0,29.74,WSW,241,4.0,10.0,78,0.00,,,0.01,weatherlink.com 1.10,2013-05-23 01:37:00,
2013-05-22 20:52:00,61.9,55.0,29.75,West,269,2.0,10.0,79,0.00,,,0.01,weatherlink.com 1.10,2013-05-23 01:52:00,
2013-05-22 21:07:00,61.5,55.0,29.75,WNW,292,5.0,13.0,80,0.00,,,0.01,weatherlink.com 1.10,2013-05-23 02:07:00,
2013-05-22 21:22:00,60.6,55.0,29.76,West,281,2.0,13.0,83,0.00,,,0.01,weatherlink.com 1.10,2013-05-23 02:22:00,
2013-05-22 21:37:00,60.1,55.0,29.76,WNW,291,3.0,10.0,84,0.00,,,0.01,weatherlink.com 1.10,2013-05-23 02:37:00,
2013-05-22 21:52:00,59.9,55.0,29.77,WNW,302,2.0,10.0,84,0.00,,,0.01,weatherlink.com 1.10,2013-05-23 02:52:00,
2013-05-22 22:22:00,59.6,56.0,29.78,West,265,6.0,11.0,86,0.00,,,0.01,weatherlink.com 1.10,2013-05-23 03:22:00,
2013-05-22 22:37:00,59.5,56.0,29.78,WNW,296,3.0,8.0,87,0.00,,,0.01,weatherlink.com 1.10,2013-05-23 03:37:00,
2013-05-22 22:53:00,59.3,56.0,29.78,WNW,291,7.0,8.0,88,0.00,,,0.01,weatherlink.com 1.10,2013-05-23 03:53:00,
2013-05-22 23:08:00,59.1,56.0,29.78,WNW,301,2.0,9.0,88,0.00,,,0.01,weatherlink.com 1.10,2013-05-23 04:08:00,